sensor_id;sensor_type;location;lat;lon;timestamp;pressure;altitude;pressure_sealevel;temperature;humidity
13124;BME280;6627;50.920;12.050;2022-07-11T00:00:08;99688.06;;;13.70;92.93
13124;BME280;6627;50.920;12.050;2022-07-11T00:02:36;99683.41;;;13.57;93.63
13124;BME280;6627;50.920;12.050;2022-07-11T00:05:06;99711.34;;;13.95;92.91
13124;BME280;6627;50.920;12.050;2022-07-11T00:07:33;99684.50;;;13.56;93.28
13124;BME280;6627;50.920;12.050;2022-07-11T00:10:00;99661.31;;;13.26;93.60
13124;BME280;6627;50.920;12.050;2022-07-11T00:12:29;99691.00;;;13.22;95.51
13124;BME280;6627;50.920;12.050;2022-07-11T00:14:56;99690.25;;;13.35;95.12
13124;BME280;6627;50.920;12.050;2022-07-11T00:17:23;99682.38;;;13.15;95.97
13124;BME280;6627;50.920;12.050;2022-07-11T00:19:51;99690.03;;;13.13;96.90
13124;BME280;6627;50.920;12.050;2022-07-11T00:22:18;99730.69;;;13.23;97.78
13124;BME280;6627;50.920;12.050;2022-07-11T00:24:46;99700.25;;;13.02;98.13
13124;BME280;6627;50.920;12.050;2022-07-11T00:27:13;99714.94;;;13.20;98.86
13124;BME280;6627;50.920;12.050;2022-07-11T00:29:42;99708.94;;;13.23;98.44
13124;BME280;6627;50.920;12.050;2022-07-11T00:32:09;99717.19;;;13.37;99.32
13124;BME280;6627;50.920;12.050;2022-07-11T00:34:36;99714.31;;;13.28;98.55
13124;BME280;6627;50.920;12.050;2022-07-11T00:37:04;99714.31;;;13.28;98.23
13124;BME280;6627;50.920;12.050;2022-07-11T00:39:32;99720.34;;;13.25;98.43
13124;BME280;6627;50.920;12.050;2022-07-11T00:41:59;99715.84;;;13.34;97.71
13124;BME280;6627;50.920;12.050;2022-07-11T00:44:26;99710.72;;;13.33;96.49
13124;BME280;6627;50.920;12.050;2022-07-11T00:46:55;99729.63;;;13.24;97.02
13124;BME280;6627;50.920;12.050;2022-07-11T00:49:22;99701.63;;;13.00;97.51
13124;BME280;6627;50.920;12.050;2022-07-11T00:51:49;99693.41;;;13.05;96.32
13124;BME280;6627;50.920;12.050;2022-07-11T00:54:18;99704.41;;;12.95;97.88
13124;BME280;6627;50.920;12.050;2022-07-11T00:56:47;99754.13;;;13.76;96.44
13124;BME280;6627;50.920;12.050;2022-07-11T00:59:18;99748.41;;;13.77;95.50
13124;BME280;6627;50.920;12.050;2022-07-11T01:01:45;99730.91;;;13.97;93.42
13124;BME280;6627;50.920;12.050;2022-07-11T01:04:14;99695.19;;;13.33;94.06
13124;BME280;6627;50.920;12.050;2022-07-11T01:06:41;99705.91;;;13.44;93.84
13124;BME280;6627;50.920;12.050;2022-07-11T01:09:09;99728.47;;;13.82;92.82
13124;BME280;6627;50.920;12.050;2022-07-11T01:11:36;99692.66;;;13.56;91.09
13124;BME280;6627;50.920;12.050;2022-07-11T01:14:03;99697.59;;;13.16;92.59
13124;BME280;6627;50.920;12.050;2022-07-11T01:16:30;99704.72;;;13.12;93.49
13124;BME280;6627;50.920;12.050;2022-07-11T01:18:57;99713.72;;;13.31;93.13
13124;BME280;6627;50.920;12.050;2022-07-11T01:21:30;99714.00;;;13.11;93.97
13124;BME280;6627;50.920;12.050;2022-07-11T01:24:01;99713.59;;;13.42;93.29
13124;BME280;6627;50.920;12.050;2022-07-11T01:26:29;99733.22;;;13.38;95.44
13124;BME280;6627;50.920;12.050;2022-07-11T01:29:06;99730.78;;;13.56;94.88
13124;BME280;6627;50.920;12.050;2022-07-11T01:31:34;99740.25;;;13.77;94.44
13124;BME280;6627;50.920;12.050;2022-07-11T01:34:01;99749.91;;;14.16;93.67
13124;BME280;6627;50.920;12.050;2022-07-11T01:36:29;99727.88;;;13.99;93.71
13124;BME280;6627;50.920;12.050;2022-07-11T01:38:56;99744.78;;;14.14;93.96
13124;BME280;6627;50.920;12.050;2022-07-11T01:41:24;99761.06;;;14.47;93.89
13124;BME280;6627;50.920;12.050;2022-07-11T01:43:52;99737.22;;;14.25;93.46
13124;BME280;6627;50.920;12.050;2022-07-11T01:46:19;99733.63;;;14.44;92.72
13124;BME280;6627;50.920;12.050;2022-07-11T01:48:47;99728.16;;;14.30;92.99
13124;BME280;6627;50.920;12.050;2022-07-11T01:51:14;99760.72;;;14.54;93.43
13124;BME280;6627;50.920;12.050;2022-07-11T01:53:41;99745.53;;;15.03;90.67
13124;BME280;6627;50.920;12.050;2022-07-11T01:56:09;99727.19;;;14.81;90.04
13124;BME280;6627;50.920;12.050;2022-07-11T01:58:37;99729.97;;;15.03;89.00
13124;BME280;6627;50.920;12.050;2022-07-11T02:01:04;99741.09;;;15.07;89.09
13124;BME280;6627;50.920;12.050;2022-07-11T02:03:31;99729.47;;;15.15;87.60
13124;BME280;6627;50.920;12.050;2022-07-11T02:05:59;99716.94;;;15.14;86.64
13124;BME280;6627;50.920;12.050;2022-07-11T02:08:27;99702.38;;;15.05;85.96
13124;BME280;6627;50.920;12.050;2022-07-11T02:10:54;99717.31;;;15.21;85.42
13124;BME280;6627;50.920;12.050;2022-07-11T02:13:22;99708.13;;;15.17;84.84
13124;BME280;6627;50.920;12.050;2022-07-11T02:15:51;99661.56;;;14.50;85.78
13124;BME280;6627;50.920;12.050;2022-07-11T02:18:20;99669.41;;;14.10;87.75
13124;BME280;6627;50.920;12.050;2022-07-11T02:20:47;99683.50;;;14.12;88.69
13124;BME280;6627;50.920;12.050;2022-07-11T02:23:16;99696.16;;;14.08;89.98
13124;BME280;6627;50.920;12.050;2022-07-11T02:25:43;99694.59;;;14.02;90.24
13124;BME280;6627;50.920;12.050;2022-07-11T02:28:11;99702.50;;;14.03;91.29
13124;BME280;6627;50.920;12.050;2022-07-11T02:30:40;99710.34;;;14.05;92.24
13124;BME280;6627;50.920;12.050;2022-07-11T02:33:09;99700.47;;;14.09;92.10
13124;BME280;6627;50.920;12.050;2022-07-11T02:35:39;99715.72;;;14.10;93.03
13124;BME280;6627;50.920;12.050;2022-07-11T02:38:07;99712.78;;;14.20;93.11
13124;BME280;6627;50.920;12.050;2022-07-11T02:40:34;99700.06;;;14.02;93.38
13124;BME280;6627;50.920;12.050;2022-07-11T02:43:01;99725.59;;;14.20;94.65
13124;BME280;6627;50.920;12.050;2022-07-11T02:45:29;99715.59;;;14.15;94.80
13124;BME280;6627;50.920;12.050;2022-07-11T02:47:56;99727.34;;;14.29;94.62
13124;BME280;6627;50.920;12.050;2022-07-11T02:50:24;99724.94;;;14.42;93.29
13124;BME280;6627;50.920;12.050;2022-07-11T02:52:51;99730.03;;;14.48;93.17
13124;BME280;6627;50.920;12.050;2022-07-11T02:55:19;99723.94;;;14.51;92.20
13124;BME280;6627;50.920;12.050;2022-07-11T02:57:46;99699.06;;;14.25;91.88
13124;BME280;6627;50.920;12.050;2022-07-11T03:00:16;99716.03;;;14.22;92.80
13124;BME280;6627;50.920;12.050;2022-07-11T03:02:43;99736.66;;;14.56;92.58
13124;BME280;6627;50.920;12.050;2022-07-11T03:05:10;99729.63;;;14.55;92.20
13124;BME280;6627;50.920;12.050;2022-07-11T03:07:40;99740.13;;;14.75;92.20
13124;BME280;6627;50.920;12.050;2022-07-11T03:10:08;99735.88;;;14.97;90.83
13124;BME280;6627;50.920;12.050;2022-07-11T03:12:36;99707.00;;;14.68;89.47
13124;BME280;6627;50.920;12.050;2022-07-11T03:15:06;99739.50;;;15.06;89.56
13124;BME280;6627;50.920;12.050;2022-07-11T03:17:33;99717.09;;;14.68;89.88
13124;BME280;6627;50.920;12.050;2022-07-11T03:20:02;99746.97;;;14.73;90.63
13124;BME280;6627;50.920;12.050;2022-07-11T03:22:29;99750.81;;;14.72;91.04
13124;BME280;6627;50.920;12.050;2022-07-11T03:24:57;99754.78;;;14.79;90.92
13124;BME280;6627;50.920;12.050;2022-07-11T03:27:26;99747.78;;;14.73;91.11
13124;BME280;6627;50.920;12.050;2022-07-11T03:29:53;99768.59;;;14.83;91.80
13124;BME280;6627;50.920;12.050;2022-07-11T03:32:20;99771.81;;;14.99;91.11
13124;BME280;6627;50.920;12.050;2022-07-11T03:34:48;99767.19;;;15.35;89.64
13124;BME280;6627;50.920;12.050;2022-07-11T03:37:29;99736.47;;;14.94;89.44
13124;BME280;6627;50.920;12.050;2022-07-11T03:39:58;99757.66;;;15.10;90.03
13124;BME280;6627;50.920;12.050;2022-07-11T03:42:26;99740.09;;;14.89;89.83
13124;BME280;6627;50.920;12.050;2022-07-11T03:44:53;99744.97;;;14.92;89.29
13124;BME280;6627;50.920;12.050;2022-07-11T03:47:20;99718.50;;;14.65;90.05
13124;BME280;6627;50.920;12.050;2022-07-11T03:49:48;99745.59;;;14.61;91.62
13124;BME280;6627;50.920;12.050;2022-07-11T03:52:15;99776.63;;;15.29;90.37
13124;BME280;6627;50.920;12.050;2022-07-11T03:54:42;99753.78;;;15.25;89.32
13124;BME280;6627;50.920;12.050;2022-07-11T03:57:11;99729.94;;;15.17;88.16
13124;BME280;6627;50.920;12.050;2022-07-11T03:59:38;99734.03;;;14.78;89.39
13124;BME280;6627;50.920;12.050;2022-07-11T04:02:05;99754.56;;;14.89;89.73
13124;BME280;6627;50.920;12.050;2022-07-11T04:04:33;99770.97;;;15.26;89.08
13124;BME280;6627;50.920;12.050;2022-07-11T04:07:00;99757.88;;;15.14;89.08
13124;BME280;6627;50.920;12.050;2022-07-11T04:09:27;99790.44;;;15.47;89.14
13124;BME280;6627;50.920;12.050;2022-07-11T04:11:54;99760.00;;;15.39;88.55
13124;BME280;6627;50.920;12.050;2022-07-11T04:14:22;99765.16;;;15.55;87.43
13124;BME280;6627;50.920;12.050;2022-07-11T04:16:50;99763.59;;;15.62;87.35
13124;BME280;6627;50.920;12.050;2022-07-11T04:19:17;99750.34;;;15.33;87.59
13124;BME280;6627;50.920;12.050;2022-07-11T04:21:44;99782.25;;;15.47;88.70
13124;BME280;6627;50.920;12.050;2022-07-11T04:24:11;99775.94;;;15.60;87.60
13124;BME280;6627;50.920;12.050;2022-07-11T04:26:39;99780.34;;;15.83;86.75
13124;BME280;6627;50.920;12.050;2022-07-11T04:29:06;99806.28;;;16.17;86.35
13124;BME280;6627;50.920;12.050;2022-07-11T04:31:34;99807.88;;;16.40;85.67
13124;BME280;6627;50.920;12.050;2022-07-11T04:34:01;99784.44;;;16.48;83.91
13124;BME280;6627;50.920;12.050;2022-07-11T04:36:29;99775.22;;;16.35;84.71
13124;BME280;6627;50.920;12.050;2022-07-11T04:38:56;99777.91;;;16.27;85.00
13124;BME280;6627;50.920;12.050;2022-07-11T04:41:23;99789.25;;;16.43;84.76
13124;BME280;6627;50.920;12.050;2022-07-11T04:43:51;99786.53;;;16.74;83.08
13124;BME280;6627;50.920;12.050;2022-07-11T04:46:18;99785.25;;;16.80;82.99
13124;BME280;6627;50.920;12.050;2022-07-11T04:48:46;99759.31;;;16.77;81.68
13124;BME280;6627;50.920;12.050;2022-07-11T04:51:13;99771.81;;;17.01;81.46
13124;BME280;6627;50.920;12.050;2022-07-11T04:53:40;99763.88;;;16.90;82.30
13124;BME280;6627;50.920;12.050;2022-07-11T04:56:07;99750.00;;;16.78;82.64
13124;BME280;6627;50.920;12.050;2022-07-11T04:58:35;99758.78;;;16.67;83.70
13124;BME280;6627;50.920;12.050;2022-07-11T05:01:02;99773.88;;;17.04;82.30
13124;BME280;6627;50.920;12.050;2022-07-11T05:03:29;99736.50;;;16.90;80.63
13124;BME280;6627;50.920;12.050;2022-07-11T05:05:59;99690.44;;;16.75;79.48
13124;BME280;6627;50.920;12.050;2022-07-11T05:08:26;99714.31;;;17.01;79.18
13124;BME280;6627;50.920;12.050;2022-07-11T05:10:55;99729.72;;;16.79;80.98
13124;BME280;6627;50.920;12.050;2022-07-11T05:13:22;99724.94;;;16.94;80.40
13124;BME280;6627;50.920;12.050;2022-07-11T05:15:49;99695.31;;;16.96;79.35
13124;BME280;6627;50.920;12.050;2022-07-11T05:18:17;99730.47;;;17.46;78.74
13124;BME280;6627;50.920;12.050;2022-07-11T05:20:44;99698.22;;;17.25;78.01
13124;BME280;6627;50.920;12.050;2022-07-11T05:23:12;99653.28;;;16.83;78.23
13124;BME280;6627;50.920;12.050;2022-07-11T05:25:39;99711.78;;;17.48;78.13
13124;BME280;6627;50.920;12.050;2022-07-11T05:28:07;99712.09;;;17.37;78.17
13124;BME280;6627;50.920;12.050;2022-07-11T05:30:34;99688.25;;;17.12;78.94
13124;BME280;6627;50.920;12.050;2022-07-11T05:33:01;99700.47;;;16.88;80.27
13124;BME280;6627;50.920;12.050;2022-07-11T05:35:28;99711.44;;;17.14;80.21
13124;BME280;6627;50.920;12.050;2022-07-11T05:37:55;99717.09;;;17.27;80.17
13124;BME280;6627;50.920;12.050;2022-07-11T05:40:24;99717.88;;;17.71;78.09
13124;BME280;6627;50.920;12.050;2022-07-11T05:42:51;99664.09;;;17.31;77.30
13124;BME280;6627;50.920;12.050;2022-07-11T05:45:19;99690.53;;;17.45;77.55
13124;BME280;6627;50.920;12.050;2022-07-11T05:47:46;99657.66;;;17.45;76.42
13124;BME280;6627;50.920;12.050;2022-07-11T05:50:13;99675.69;;;17.46;76.54
13124;BME280;6627;50.920;12.050;2022-07-11T05:52:40;99667.78;;;17.44;76.73
13124;BME280;6627;50.920;12.050;2022-07-11T05:55:07;99700.47;;;17.93;76.04
13124;BME280;6627;50.920;12.050;2022-07-11T05:57:36;99678.72;;;17.61;76.45
13124;BME280;6627;50.920;12.050;2022-07-11T06:00:04;99706.66;;;18.19;75.33
13124;BME280;6627;50.920;12.050;2022-07-11T06:02:31;99673.19;;;17.96;75.44
13124;BME280;6627;50.920;12.050;2022-07-11T06:04:58;99717.50;;;18.24;75.29
13124;BME280;6627;50.920;12.050;2022-07-11T06:07:25;99624.41;;;17.72;74.16
13124;BME280;6627;50.920;12.050;2022-07-11T06:10:08;99645.94;;;18.00;74.37
13124;BME280;6627;50.920;12.050;2022-07-11T06:12:37;99619.84;;;17.94;73.14
13124;BME280;6627;50.920;12.050;2022-07-11T06:15:05;99667.91;;;18.38;73.00
13124;BME280;6627;50.920;12.050;2022-07-11T06:17:32;99732.16;;;20.01;69.56
13124;BME280;6627;50.920;12.050;2022-07-11T06:20:00;99921.94;;;24.83;61.79
13124;BME280;6627;50.920;12.050;2022-07-11T06:22:27;99387.00;;;20.75;61.24
13124;BME280;6627;50.920;12.050;2022-07-11T06:24:54;99749.78;;;23.77;59.41
13124;BME280;6627;50.920;12.050;2022-07-11T06:27:21;99139.47;;;20.19;59.58
13124;BME280;6627;50.920;12.050;2022-07-11T06:29:50;99208.16;;;19.07;63.26
13124;BME280;6627;50.920;12.050;2022-07-11T06:32:17;99634.38;;;23.58;60.60
13124;BME280;6627;50.920;12.050;2022-07-11T06:34:44;99094.31;;;20.71;57.65
13124;BME280;6627;50.920;12.050;2022-07-11T06:37:11;99361.75;;;22.84;56.95
13124;BME280;6627;50.920;12.050;2022-07-11T06:39:39;99086.19;;;19.64;60.26
13124;BME280;6627;50.920;12.050;2022-07-11T06:42:06;99063.44;;;19.07;62.17
13124;BME280;6627;50.920;12.050;2022-07-11T06:44:33;99175.03;;;19.68;62.84
13124;BME280;6627;50.920;12.050;2022-07-11T06:47:02;99135.19;;;18.94;64.06
13124;BME280;6627;50.920;12.050;2022-07-11T06:49:29;99104.63;;;18.30;65.16
13124;BME280;6627;50.920;12.050;2022-07-11T06:51:56;99226.81;;;19.01;65.59
13124;BME280;6627;50.920;12.050;2022-07-11T06:54:23;99175.59;;;18.56;65.52
13124;BME280;6627;50.920;12.050;2022-07-11T06:56:50;99227.41;;;18.82;65.36
13124;BME280;6627;50.920;12.050;2022-07-11T06:59:18;99311.44;;;20.45;62.29
13124;BME280;6627;50.920;12.050;2022-07-11T07:01:45;99212.38;;;20.92;58.98
13124;BME280;6627;50.920;12.050;2022-07-11T07:04:13;99101.03;;;19.19;61.80
13124;BME280;6627;50.920;12.050;2022-07-11T07:06:40;99165.59;;;19.13;62.81
13124;BME280;6627;50.920;12.050;2022-07-11T07:09:07;99159.91;;;18.81;63.74
13124;BME280;6627;50.920;12.050;2022-07-11T07:11:34;99205.22;;;19.00;64.26
13124;BME280;6627;50.920;12.050;2022-07-11T07:14:01;99306.94;;;19.68;64.11
13124;BME280;6627;50.920;12.050;2022-07-11T07:16:29;99241.81;;;20.12;61.05
13124;BME280;6627;50.920;12.050;2022-07-11T07:18:56;99199.41;;;19.29;62.86
13124;BME280;6627;50.920;12.050;2022-07-11T07:21:24;99185.88;;;19.08;62.63
13124;BME280;6627;50.920;12.050;2022-07-11T07:23:52;99269.09;;;19.89;61.46
13124;BME280;6627;50.920;12.050;2022-07-11T07:26:19;99209.06;;;19.51;61.82
13124;BME280;6627;50.920;12.050;2022-07-11T07:28:46;99290.28;;;20.17;61.05
13124;BME280;6627;50.920;12.050;2022-07-11T07:31:13;99223.19;;;20.06;59.62
13124;BME280;6627;50.920;12.050;2022-07-11T07:33:40;99246.31;;;20.80;57.62
13124;BME280;6627;50.920;12.050;2022-07-11T07:36:07;99462.25;;;23.41;53.81
13124;BME280;6627;50.920;12.050;2022-07-11T07:38:36;99411.09;;;24.68;49.99
13124;BME280;6627;50.920;12.050;2022-07-11T07:41:03;99360.63;;;27.22;45.09
13124;BME280;6627;50.920;12.050;2022-07-11T07:43:30;98653.63;;;24.01;45.10
13124;BME280;6627;50.920;12.050;2022-07-11T07:45:57;98976.00;;;26.02;45.13
13124;BME280;6627;50.920;12.050;2022-07-11T07:48:24;98540.50;;;23.35;46.91
13124;BME280;6627;50.920;12.050;2022-07-11T07:50:51;98400.50;;;22.41;47.57
13124;BME280;6627;50.920;12.050;2022-07-11T07:53:19;98789.00;;;24.49;46.46
13124;BME280;6627;50.920;12.050;2022-07-11T07:55:48;98935.47;;;26.29;43.53
13124;BME280;6627;50.920;12.050;2022-07-11T07:58:16;99003.72;;;27.91;41.37
13124;BME280;6627;50.920;12.050;2022-07-11T08:00:43;98208.00;;;23.60;43.80
13124;BME280;6627;50.920;12.050;2022-07-11T08:03:27;98520.66;;;23.05;47.98
13124;BME280;6627;50.920;12.050;2022-07-11T08:05:54;98662.34;;;23.96;46.79
13124;BME280;6627;50.920;12.050;2022-07-11T08:08:22;98410.84;;;22.73;46.34
13124;BME280;6627;50.920;12.050;2022-07-11T08:10:50;98214.56;;;20.97;49.07
13124;BME280;6627;50.920;12.050;2022-07-11T08:13:18;98337.00;;;20.35;51.38
13124;BME280;6627;50.920;12.050;2022-07-11T08:15:45;98403.00;;;20.35;51.63
13124;BME280;6627;50.920;12.050;2022-07-11T08:18:13;98461.13;;;20.04;52.97
13124;BME280;6627;50.920;12.050;2022-07-11T08:20:40;98475.22;;;19.53;53.82
13124;BME280;6627;50.920;12.050;2022-07-11T08:23:07;98770.75;;;21.50;51.70
13124;BME280;6627;50.920;12.050;2022-07-11T08:25:34;98816.50;;;21.84;51.22
13124;BME280;6627;50.920;12.050;2022-07-11T08:28:03;98861.63;;;22.66;49.17
13124;BME280;6627;50.920;12.050;2022-07-11T08:30:30;98765.94;;;22.40;48.83
13124;BME280;6627;50.920;12.050;2022-07-11T08:32:58;98797.59;;;22.91;47.52
13124;BME280;6627;50.920;12.050;2022-07-11T08:35:25;98629.91;;;22.36;46.60
13124;BME280;6627;50.920;12.050;2022-07-11T08:37:52;98664.41;;;22.16;48.25
13124;BME280;6627;50.920;12.050;2022-07-11T08:40:20;98594.19;;;22.10;47.58
13124;BME280;6627;50.920;12.050;2022-07-11T08:42:47;98763.84;;;23.19;46.91
13124;BME280;6627;50.920;12.050;2022-07-11T08:45:17;98872.84;;;24.50;44.56
13124;BME280;6627;50.920;12.050;2022-07-11T08:47:45;98815.94;;;24.91;43.43
13124;BME280;6627;50.920;12.050;2022-07-11T08:50:13;98461.53;;;23.52;43.52
13124;BME280;6627;50.920;12.050;2022-07-11T08:52:40;98364.63;;;22.41;45.82
13124;BME280;6627;50.920;12.050;2022-07-11T08:55:08;98365.88;;;21.78;46.88
13124;BME280;6627;50.920;12.050;2022-07-11T08:57:36;98404.06;;;21.80;47.30
13124;BME280;6627;50.920;12.050;2022-07-11T09:00:07;98476.69;;;22.02;46.99
13124;BME280;6627;50.920;12.050;2022-07-11T09:02:37;98364.81;;;21.42;47.58
13124;BME280;6627;50.920;12.050;2022-07-11T09:05:08;98673.72;;;22.97;46.31
13124;BME280;6627;50.920;12.050;2022-07-11T09:07:43;98555.25;;;22.77;45.83
13124;BME280;6627;50.920;12.050;2022-07-11T09:10:10;98597.16;;;22.90;46.12
13124;BME280;6627;50.920;12.050;2022-07-11T09:12:38;98729.94;;;24.06;44.81
13124;BME280;6627;50.920;12.050;2022-07-11T09:15:32;98615.50;;;23.34;45.10
13124;BME280;6627;50.920;12.050;2022-07-11T09:18:01;98579.94;;;23.32;45.05
13124;BME280;6627;50.920;12.050;2022-07-11T09:20:55;98557.97;;;23.75;43.32
13124;BME280;6627;50.920;12.050;2022-07-11T09:23:42;98378.94;;;22.86;43.95
13124;BME280;6627;50.920;12.050;2022-07-11T09:26:33;98446.41;;;22.85;45.10
13124;BME280;6627;50.920;12.050;2022-07-11T09:29:04;98531.88;;;23.76;42.92
13124;BME280;6627;50.920;12.050;2022-07-11T09:31:33;98493.97;;;24.09;41.72
13124;BME280;6627;50.920;12.050;2022-07-11T09:34:04;98436.25;;;23.86;41.63
13124;BME280;6627;50.920;12.050;2022-07-11T09:36:41;98586.31;;;25.01;40.93
13124;BME280;6627;50.920;12.050;2022-07-11T09:39:12;98402.13;;;24.50;40.20
13124;BME280;6627;50.920;12.050;2022-07-11T09:41:41;98167.66;;;23.73;39.00
13124;BME280;6627;50.920;12.050;2022-07-11T09:44:12;98284.34;;;24.31;39.36
13124;BME280;6627;50.920;12.050;2022-07-11T09:46:41;98214.22;;;23.85;40.99
13124;BME280;6627;50.920;12.050;2022-07-11T09:49:09;98278.66;;;23.75;42.24
13124;BME280;6627;50.920;12.050;2022-07-11T09:51:39;98126.09;;;22.42;44.03
13124;BME280;6627;50.920;12.050;2022-07-11T09:54:08;98197.84;;;22.42;44.84
13124;BME280;6627;50.920;12.050;2022-07-11T09:56:40;98248.31;;;22.39;44.88
13124;BME280;6627;50.920;12.050;2022-07-11T09:59:10;98199.28;;;21.83;45.60
13124;BME280;6627;50.920;12.050;2022-07-11T10:01:39;98361.13;;;22.59;44.83
13124;BME280;6627;50.920;12.050;2022-07-11T10:04:08;98410.16;;;22.98;44.05
13124;BME280;6627;50.920;12.050;2022-07-11T10:06:38;98286.19;;;22.60;42.84
13124;BME280;6627;50.920;12.050;2022-07-11T10:09:07;98353.72;;;23.06;42.87
13124;BME280;6627;50.920;12.050;2022-07-11T10:11:34;98476.53;;;24.12;40.94
13124;BME280;6627;50.920;12.050;2022-07-11T10:14:03;98356.50;;;23.70;41.35
13124;BME280;6627;50.920;12.050;2022-07-11T10:16:55;98541.19;;;24.97;40.25
13124;BME280;6627;50.920;12.050;2022-07-11T10:19:39;98305.75;;;24.23;38.76
13124;BME280;6627;50.920;12.050;2022-07-11T10:22:21;98314.13;;;24.79;37.72
13124;BME280;6627;50.920;12.050;2022-07-11T10:24:58;98371.34;;;25.59;37.57
13124;BME280;6627;50.920;12.050;2022-07-11T10:27:34;98313.31;;;25.75;37.19
13124;BME280;6627;50.920;12.050;2022-07-11T10:30:04;98100.38;;;24.87;37.38
13124;BME280;6627;50.920;12.050;2022-07-11T10:32:31;98124.34;;;25.01;37.32
13124;BME280;6627;50.920;12.050;2022-07-11T10:35:08;98182.00;;;24.79;38.94
13124;BME280;6627;50.920;12.050;2022-07-11T10:37:48;98174.59;;;25.07;37.69
13124;BME280;6627;50.920;12.050;2022-07-11T10:40:15;98210.44;;;25.28;38.22
13124;BME280;6627;50.920;12.050;2022-07-11T10:42:42;98169.03;;;25.10;37.76
13124;BME280;6627;50.920;12.050;2022-07-11T10:45:11;98007.84;;;23.99;38.90
13124;BME280;6627;50.920;12.050;2022-07-11T10:47:43;98107.50;;;23.95;40.31
13124;BME280;6627;50.920;12.050;2022-07-11T10:50:29;98187.03;;;24.36;39.86
13124;BME280;6627;50.920;12.050;2022-07-11T10:53:08;98238.78;;;24.50;39.76
13124;BME280;6627;50.920;12.050;2022-07-11T10:55:39;98296.78;;;25.23;38.43
13124;BME280;6627;50.920;12.050;2022-07-11T10:58:20;98245.06;;;25.06;38.45
13124;BME280;6627;50.920;12.050;2022-07-11T11:01:08;98180.16;;;25.03;36.93
13124;BME280;6627;50.920;12.050;2022-07-11T11:03:36;98162.56;;;25.24;36.20
13124;BME280;6627;50.920;12.050;2022-07-11T11:06:04;98148.00;;;25.51;35.92
13124;BME280;6627;50.920;12.050;2022-07-11T11:08:45;97931.69;;;24.28;37.10
13124;BME280;6627;50.920;12.050;2022-07-11T11:11:34;97883.59;;;24.15;36.65
13124;BME280;6627;50.920;12.050;2022-07-11T11:14:24;98039.31;;;24.60;37.41
13124;BME280;6627;50.920;12.050;2022-07-11T11:16:55;97970.88;;;24.61;36.28
13124;BME280;6627;50.920;12.050;2022-07-11T11:19:54;97996.84;;;24.74;36.17
13124;BME280;6627;50.920;12.050;2022-07-11T11:22:23;97871.94;;;24.00;36.63
13124;BME280;6627;50.920;12.050;2022-07-11T11:24:55;97856.47;;;23.65;37.19
13124;BME280;6627;50.920;12.050;2022-07-11T11:27:24;98015.03;;;23.92;39.08
13124;BME280;6627;50.920;12.050;2022-07-11T11:29:54;98093.91;;;24.11;39.40
13124;BME280;6627;50.920;12.050;2022-07-11T11:32:28;98044.03;;;23.70;39.48
13124;BME280;6627;50.920;12.050;2022-07-11T11:34:58;98244.16;;;24.71;38.79
13124;BME280;6627;50.920;12.050;2022-07-11T11:37:25;98382.19;;;25.39;39.38
13124;BME280;6627;50.920;12.050;2022-07-11T11:39:58;98241.28;;;25.30;37.20
13124;BME280;6627;50.920;12.050;2022-07-11T11:42:28;98184.50;;;25.08;37.18
13124;BME280;6627;50.920;12.050;2022-07-11T11:45:00;98008.03;;;24.67;35.40
13124;BME280;6627;50.920;12.050;2022-07-11T11:47:29;98087.72;;;25.24;35.43
13124;BME280;6627;50.920;12.050;2022-07-11T11:49:58;98017.09;;;25.02;35.44
13124;BME280;6627;50.920;12.050;2022-07-11T11:52:27;97933.53;;;24.76;35.06
13124;BME280;6627;50.920;12.050;2022-07-11T11:54:57;97968.03;;;25.02;35.07
13124;BME280;6627;50.920;12.050;2022-07-11T11:57:27;97845.84;;;24.66;34.48
13124;BME280;6627;50.920;12.050;2022-07-11T11:59:55;98046.66;;;25.46;35.59
13124;BME280;6627;50.920;12.050;2022-07-11T12:02:29;98001.84;;;25.48;34.99
13124;BME280;6627;50.920;12.050;2022-07-11T12:04:58;97999.84;;;25.48;34.90
13124;BME280;6627;50.920;12.050;2022-07-11T12:07:28;98058.88;;;25.76;35.44
13124;BME280;6627;50.920;12.050;2022-07-11T12:09:58;97879.16;;;24.89;35.31
13124;BME280;6627;50.920;12.050;2022-07-11T12:12:30;97859.06;;;24.82;35.13
13124;BME280;6627;50.920;12.050;2022-07-11T12:15:27;97817.03;;;24.29;36.33
13124;BME280;6627;50.920;12.050;2022-07-11T12:18:00;98101.66;;;25.17;37.70
13124;BME280;6627;50.920;12.050;2022-07-11T12:20:39;98094.28;;;25.68;35.98
13124;BME280;6627;50.920;12.050;2022-07-11T12:23:09;98185.25;;;26.11;35.75
13124;BME280;6627;50.920;12.050;2022-07-11T12:25:38;98019.38;;;25.68;34.91
13124;BME280;6627;50.920;12.050;2022-07-11T12:28:06;97985.63;;;25.73;34.40
13124;BME280;6627;50.920;12.050;2022-07-11T12:30:34;97962.00;;;25.88;33.58
13124;BME280;6627;50.920;12.050;2022-07-11T12:33:04;97950.06;;;25.91;33.82
13124;BME280;6627;50.920;12.050;2022-07-11T12:35:32;97960.34;;;25.95;34.19
13124;BME280;6627;50.920;12.050;2022-07-11T12:38:01;97902.63;;;25.86;33.65
13124;BME280;6627;50.920;12.050;2022-07-11T12:40:28;97887.31;;;25.74;33.99
13124;BME280;6627;50.920;12.050;2022-07-11T12:42:56;97812.97;;;25.46;33.35
13124;BME280;6627;50.920;12.050;2022-07-11T12:45:23;98036.16;;;26.78;32.90
13124;BME280;6627;50.920;12.050;2022-07-11T12:47:50;97950.88;;;26.55;32.98
13124;BME280;6627;50.920;12.050;2022-07-11T12:50:22;97924.94;;;26.42;33.60
13124;BME280;6627;50.920;12.050;2022-07-11T12:52:52;97929.59;;;26.49;33.30
13124;BME280;6627;50.920;12.050;2022-07-11T12:55:23;97839.38;;;26.17;32.99
13124;BME280;6627;50.920;12.050;2022-07-11T12:58:04;97832.03;;;26.27;33.05
13124;BME280;6627;50.920;12.050;2022-07-11T13:00:33;97812.34;;;25.81;34.11
13124;BME280;6627;50.920;12.050;2022-07-11T13:03:03;97674.28;;;24.82;35.41
13124;BME280;6627;50.920;12.050;2022-07-11T13:05:47;97845.31;;;25.02;36.31
13124;BME280;6627;50.920;12.050;2022-07-11T13:08:25;97869.50;;;25.28;35.29
13124;BME280;6627;50.920;12.050;2022-07-11T13:11:15;97888.63;;;24.61;37.86